sensor_id;sensor_type;location;lat;lon;timestamp;P1;durP1;ratioP1;P2;durP2;ratioP2
29688;SDS011;16600;47.444;8.334;2022-09-16T00:00:10;5.32;;;3.72;;
29688;SDS011;16600;47.444;8.334;2022-09-16T00:02:36;3.90;;;3.50;;
29688;SDS011;16600;47.444;8.334;2022-09-16T00:07:28;8.38;;;3.22;;
29688;SDS011;16600;47.444;8.334;2022-09-16T00:09:55;3.90;;;3.13;;
29688;SDS011;16600;47.444;8.334;2022-09-16T00:14:46;5.68;;;3.75;;
29688;SDS011;16600;47.444;8.334;2022-09-16T00:17:12;3.88;;;3.35;;
29688;SDS011;16600;47.444;8.334;2022-09-16T00:19:38;4.32;;;3.42;;
29688;SDS011;16600;47.444;8.334;2022-09-16T00:22:04;6.93;;;3.67;;
29688;SDS011;16600;47.444;8.334;2022-09-16T00:26:58;3.53;;;3.22;;
29688;SDS011;16600;47.444;8.334;2022-09-16T00:29:27;4.50;;;3.92;;
29688;SDS011;16600;47.444;8.334;2022-09-16T00:31:53;3.97;;;3.50;;
29688;SDS011;16600;47.444;8.334;2022-09-16T00:36:45;5.70;;;3.15;;
29688;SDS011;16600;47.444;8.334;2022-09-16T00:39:11;5.60;;;3.45;;
29688;SDS011;16600;47.444;8.334;2022-09-16T00:44:03;6.20;;;3.78;;
29688;SDS011;16600;47.444;8.334;2022-09-16T00:49:08;8.85;;;4.85;;
29688;SDS011;16600;47.444;8.334;2022-09-16T00:51:35;7.00;;;4.25;;
29688;SDS011;16600;47.444;8.334;2022-09-16T00:54:02;6.70;;;5.07;;
29688;SDS011;16600;47.444;8.334;2022-09-16T00:56:30;10.65;;;4.60;;
29688;SDS011;16600;47.444;8.334;2022-09-16T00:59:04;18.83;;;4.25;;
29688;SDS011;16600;47.444;8.334;2022-09-16T01:01:31;5.63;;;4.70;;
29688;SDS011;16600;47.444;8.334;2022-09-16T01:04:05;5.43;;;4.93;;
29688;SDS011;16600;47.444;8.334;2022-09-16T01:06:34;10.98;;;5.35;;
29688;SDS011;16600;47.444;8.334;2022-09-16T01:09:03;7.50;;;6.85;;
29688;SDS011;16600;47.444;8.334;2022-09-16T01:11:29;12.25;;;6.78;;
29688;SDS011;16600;47.444;8.334;2022-09-16T01:13:55;6.95;;;5.05;;
29688;SDS011;16600;47.444;8.334;2022-09-16T01:16:41;5.90;;;5.07;;
29688;SDS011;16600;47.444;8.334;2022-09-16T01:19:11;6.45;;;5.88;;
29688;SDS011;16600;47.444;8.334;2022-09-16T01:21:46;13.90;;;5.72;;
29688;SDS011;16600;47.444;8.334;2022-09-16T01:29:57;5.32;;;4.82;;
29688;SDS011;16600;47.444;8.334;2022-09-16T01:32:38;5.68;;;4.65;;
29688;SDS011;16600;47.444;8.334;2022-09-16T01:37:59;6.82;;;5.45;;
29688;SDS011;16600;47.444;8.334;2022-09-16T01:40:32;8.63;;;4.70;;
29688;SDS011;16600;47.444;8.334;2022-09-16T01:51:43;9.68;;;5.05;;
29688;SDS011;16600;47.444;8.334;2022-09-16T01:56:33;7.57;;;5.35;;
29688;SDS011;16600;47.444;8.334;2022-09-16T01:59:16;9.50;;;5.80;;
29688;SDS011;16600;47.444;8.334;2022-09-16T02:06:35;7.45;;;6.72;;
29688;SDS011;16600;47.444;8.334;2022-09-16T02:09:08;6.53;;;5.93;;
29688;SDS011;16600;47.444;8.334;2022-09-16T02:11:36;5.78;;;5.28;;
29688;SDS011;16600;47.444;8.334;2022-09-16T02:14:10;14.73;;;6.40;;
29688;SDS011;16600;47.444;8.334;2022-09-16T02:16:39;6.38;;;5.78;;
29688;SDS011;16600;47.444;8.334;2022-09-16T02:19:08;9.15;;;6.15;;
29688;SDS011;16600;47.444;8.334;2022-09-16T02:21:35;6.32;;;5.43;;
29688;SDS011;16600;47.444;8.334;2022-09-16T02:24:02;6.65;;;5.95;;
29688;SDS011;16600;47.444;8.334;2022-09-16T02:26:32;8.57;;;7.03;;
29688;SDS011;16600;47.444;8.334;2022-09-16T02:28:58;7.18;;;6.47;;
29688;SDS011;16600;47.444;8.334;2022-09-16T02:31:26;13.35;;;7.13;;
29688;SDS011;16600;47.444;8.334;2022-09-16T02:33:56;8.65;;;6.97;;
29688;SDS011;16600;47.444;8.334;2022-09-16T02:36:24;7.45;;;6.75;;
29688;SDS011;16600;47.444;8.334;2022-09-16T02:38:58;8.52;;;6.78;;
29688;SDS011;16600;47.444;8.334;2022-09-16T02:41:25;7.93;;;6.43;;
29688;SDS011;16600;47.444;8.334;2022-09-16T02:56:27;8.27;;;5.40;;
29688;SDS011;16600;47.444;8.334;2022-09-16T02:58:54;10.38;;;5.50;;
29688;SDS011;16600;47.444;8.334;2022-09-16T03:03:45;7.50;;;6.45;;
29688;SDS011;16600;47.444;8.334;2022-09-16T03:08:37;7.82;;;6.18;;
29688;SDS011;16600;47.444;8.334;2022-09-16T03:13:34;10.07;;;6.88;;
29688;SDS011;16600;47.444;8.334;2022-09-16T03:16:11;7.75;;;6.53;;
29688;SDS011;16600;47.444;8.334;2022-09-16T03:21:31;7.50;;;6.68;;
29688;SDS011;16600;47.444;8.334;2022-09-16T03:24:08;7.55;;;6.53;;
29688;SDS011;16600;47.444;8.334;2022-09-16T03:34:05;10.85;;;7.80;;
29688;SDS011;16600;47.444;8.334;2022-09-16T03:36:33;7.50;;;6.80;;
29688;SDS011;16600;47.444;8.334;2022-09-16T03:39:00;9.50;;;7.63;;
29688;SDS011;16600;47.444;8.334;2022-09-16T03:41:27;9.18;;;7.30;;
29688;SDS011;16600;47.444;8.334;2022-09-16T03:43:54;10.30;;;7.18;;
29688;SDS011;16600;47.444;8.334;2022-09-16T03:46:20;9.43;;;7.18;;
29688;SDS011;16600;47.444;8.334;2022-09-16T03:51:11;12.77;;;7.85;;
29688;SDS011;16600;47.444;8.334;2022-09-16T03:53:37;8.77;;;6.78;;
29688;SDS011;16600;47.444;8.334;2022-09-16T03:58:29;7.97;;;6.63;;
29688;SDS011;16600;47.444;8.334;2022-09-16T04:03:20;9.27;;;7.63;;
29688;SDS011;16600;47.444;8.334;2022-09-16T04:05:50;8.32;;;7.53;;
29688;SDS011;16600;47.444;8.334;2022-09-16T04:08:16;9.82;;;7.32;;
29688;SDS011;16600;47.444;8.334;2022-09-16T04:13:08;9.88;;;8.10;;
29688;SDS011;16600;47.444;8.334;2022-09-16T04:15:35;10.57;;;8.40;;
29688;SDS011;16600;47.444;8.334;2022-09-16T04:18:01;12.00;;;9.95;;
29688;SDS011;16600;47.444;8.334;2022-09-16T04:20:32;13.73;;;10.25;;
29688;SDS011;16600;47.444;8.334;2022-09-16T04:23:00;8.73;;;7.93;;
29688;SDS011;16600;47.444;8.334;2022-09-16T04:25:26;10.38;;;8.95;;
29688;SDS011;16600;47.444;8.334;2022-09-16T04:30:18;14.27;;;10.30;;
29688;SDS011;16600;47.444;8.334;2022-09-16T04:32:44;12.35;;;9.98;;
29688;SDS011;16600;47.444;8.334;2022-09-16T04:35:11;16.27;;;10.18;;
29688;SDS011;16600;47.444;8.334;2022-09-16T04:37:37;16.38;;;9.77;;
29688;SDS011;16600;47.444;8.334;2022-09-16T04:40:03;13.32;;;9.45;;
29688;SDS011;16600;47.444;8.334;2022-09-16T04:42:29;11.85;;;10.32;;
29688;SDS011;16600;47.444;8.334;2022-09-16T04:44:55;12.25;;;11.05;;
29688;SDS011;16600;47.444;8.334;2022-09-16T04:47:22;15.75;;;11.88;;
29688;SDS011;16600;47.444;8.334;2022-09-16T04:49:48;13.93;;;11.77;;
29688;SDS011;16600;47.444;8.334;2022-09-16T04:54:39;12.68;;;10.20;;
29688;SDS011;16600;47.444;8.334;2022-09-16T04:57:05;14.55;;;9.95;;
29688;SDS011;16600;47.444;8.334;2022-09-16T05:01:58;12.43;;;8.40;;
29688;SDS011;16600;47.444;8.334;2022-09-16T05:04:24;12.02;;;8.55;;
29688;SDS011;16600;47.444;8.334;2022-09-16T05:09:16;8.52;;;7.72;;
29688;SDS011;16600;47.444;8.334;2022-09-16T05:14:09;6.82;;;6.13;;
29688;SDS011;16600;47.444;8.334;2022-09-16T05:16:36;6.00;;;5.43;;
29688;SDS011;16600;47.444;8.334;2022-09-16T05:21:31;7.10;;;6.32;;
29688;SDS011;16600;47.444;8.334;2022-09-16T05:24:01;6.65;;;5.85;;
29688;SDS011;16600;47.444;8.334;2022-09-16T05:26:29;7.65;;;6.28;;
29688;SDS011;16600;47.444;8.334;2022-09-16T05:28:58;7.03;;;6.32;;
29688;SDS011;16600;47.444;8.334;2022-09-16T05:31:25;7.40;;;6.05;;
29688;SDS011;16600;47.444;8.334;2022-09-16T05:33:52;11.35;;;6.20;;
29688;SDS011;16600;47.444;8.334;2022-09-16T05:36:19;8.60;;;6.50;;
29688;SDS011;16600;47.444;8.334;2022-09-16T05:38:45;7.97;;;6.60;;
29688;SDS011;16600;47.444;8.334;2022-09-16T05:43:37;9.60;;;7.03;;
29688;SDS011;16600;47.444;8.334;2022-09-16T05:46:04;8.50;;;6.00;;
29688;SDS011;16600;47.444;8.334;2022-09-16T05:48:30;7.40;;;4.55;;
29688;SDS011;16600;47.444;8.334;2022-09-16T05:50:57;5.10;;;4.30;;
29688;SDS011;16600;47.444;8.334;2022-09-16T05:53:24;7.50;;;5.60;;
29688;SDS011;16600;47.444;8.334;2022-09-16T05:55:57;8.80;;;6.00;;
29688;SDS011;16600;47.444;8.334;2022-09-16T05:58:23;13.18;;;6.28;;
29688;SDS011;16600;47.444;8.334;2022-09-16T06:00:49;13.25;;;5.90;;
29688;SDS011;16600;47.444;8.334;2022-09-16T06:05:41;7.93;;;5.35;;
29688;SDS011;16600;47.444;8.334;2022-09-16T06:10:39;6.45;;;5.78;;
29688;SDS011;16600;47.444;8.334;2022-09-16T06:13:05;8.00;;;6.57;;
29688;SDS011;16600;47.444;8.334;2022-09-16T06:15:31;8.73;;;5.90;;
29688;SDS011;16600;47.444;8.334;2022-09-16T06:17:57;6.25;;;5.65;;
29688;SDS011;16600;47.444;8.334;2022-09-16T06:22:49;9.32;;;6.88;;
29688;SDS011;16600;47.444;8.334;2022-09-16T06:25:15;6.78;;;5.80;;
29688;SDS011;16600;47.444;8.334;2022-09-16T06:27:41;11.63;;;7.20;;
29688;SDS011;16600;47.444;8.334;2022-09-16T06:32:32;6.75;;;6.00;;
29688;SDS011;16600;47.444;8.334;2022-09-16T06:34:58;10.20;;;6.57;;
29688;SDS011;16600;47.444;8.334;2022-09-16T06:39:50;9.27;;;6.80;;
29688;SDS011;16600;47.444;8.334;2022-09-16T06:42:16;9.30;;;7.00;;
29688;SDS011;16600;47.444;8.334;2022-09-16T06:44:42;8.43;;;6.47;;
29688;SDS011;16600;47.444;8.334;2022-09-16T06:49:34;12.07;;;7.35;;
29688;SDS011;16600;47.444;8.334;2022-09-16T06:54:25;8.90;;;7.15;;
29688;SDS011;16600;47.444;8.334;2022-09-16T06:56:51;6.97;;;5.90;;
29688;SDS011;16600;47.444;8.334;2022-09-16T07:01:43;6.00;;;5.50;;
29688;SDS011;16600;47.444;8.334;2022-09-16T07:04:09;12.35;;;6.30;;
29688;SDS011;16600;47.444;8.334;2022-09-16T07:06:35;9.23;;;5.82;;
29688;SDS011;16600;47.444;8.334;2022-09-16T07:09:02;9.15;;;5.95;;
29688;SDS011;16600;47.444;8.334;2022-09-16T07:11:28;5.85;;;5.28;;
29688;SDS011;16600;47.444;8.334;2022-09-16T07:13:54;8.63;;;4.95;;
29688;SDS011;16600;47.444;8.334;2022-09-16T07:16:21;6.88;;;5.20;;
29688;SDS011;16600;47.444;8.334;2022-09-16T07:18:50;5.97;;;4.80;;
29688;SDS011;16600;47.444;8.334;2022-09-16T07:21:17;6.55;;;4.90;;
29688;SDS011;16600;47.444;8.334;2022-09-16T07:23:44;5.80;;;4.53;;
29688;SDS011;16600;47.444;8.334;2022-09-16T07:26:12;6.38;;;4.30;;
29688;SDS011;16600;47.444;8.334;2022-09-16T07:28:39;3.88;;;3.58;;
29688;SDS011;16600;47.444;8.334;2022-09-16T07:31:06;11.45;;;4.35;;
29688;SDS011;16600;47.444;8.334;2022-09-16T07:33:36;7.03;;;3.65;;
29688;SDS011;16600;47.444;8.334;2022-09-16T07:36:03;9.23;;;4.57;;
29688;SDS011;16600;47.444;8.334;2022-09-16T07:38:29;5.50;;;4.38;;
29688;SDS011;16600;47.444;8.334;2022-09-16T07:40:56;4.45;;;3.78;;
29688;SDS011;16600;47.444;8.334;2022-09-16T07:43:28;4.50;;;3.63;;
29688;SDS011;16600;47.444;8.334;2022-09-16T07:45:55;8.32;;;4.22;;
29688;SDS011;16600;47.444;8.334;2022-09-16T07:48:21;6.95;;;4.60;;
29688;SDS011;16600;47.444;8.334;2022-09-16T07:50:53;6.80;;;4.50;;
29688;SDS011;16600;47.444;8.334;2022-09-16T07:53:20;7.80;;;4.60;;
29688;SDS011;16600;47.444;8.334;2022-09-16T07:55:46;6.70;;;3.80;;
29688;SDS011;16600;47.444;8.334;2022-09-16T07:58:12;7.07;;;3.78;;
29688;SDS011;16600;47.444;8.334;2022-09-16T08:00:38;8.55;;;3.90;;
29688;SDS011;16600;47.444;8.334;2022-09-16T08:03:04;7.07;;;4.03;;
29688;SDS011;16600;47.444;8.334;2022-09-16T08:05:30;4.57;;;3.75;;
29688;SDS011;16600;47.444;8.334;2022-09-16T08:07:56;4.30;;;3.53;;
29688;SDS011;16600;47.444;8.334;2022-09-16T08:10:25;4.43;;;3.58;;
29688;SDS011;16600;47.444;8.334;2022-09-16T08:12:51;3.67;;;3.08;;
29688;SDS011;16600;47.444;8.334;2022-09-16T08:15:16;6.20;;;3.83;;
29688;SDS011;16600;47.444;8.334;2022-09-16T08:17:42;6.22;;;3.33;;
29688;SDS011;16600;47.444;8.334;2022-09-16T08:20:08;5.63;;;3.03;;
29688;SDS011;16600;47.444;8.334;2022-09-16T08:22:34;4.88;;;2.95;;
29688;SDS011;16600;47.444;8.334;2022-09-16T08:25:00;3.60;;;3.05;;
29688;SDS011;16600;47.444;8.334;2022-09-16T08:27:26;3.80;;;2.90;;
29688;SDS011;16600;47.444;8.334;2022-09-16T08:29:52;3.28;;;2.97;;
29688;SDS011;16600;47.444;8.334;2022-09-16T08:32:17;5.45;;;3.28;;
29688;SDS011;16600;47.444;8.334;2022-09-16T08:34:44;4.40;;;3.50;;
29688;SDS011;16600;47.444;8.334;2022-09-16T08:37:10;6.00;;;2.67;;
29688;SDS011;16600;47.444;8.334;2022-09-16T08:39:36;4.85;;;3.17;;
29688;SDS011;16600;47.444;8.334;2022-09-16T08:42:11;6.32;;;2.95;;
29688;SDS011;16600;47.444;8.334;2022-09-16T08:45:05;3.42;;;3.13;;
29688;SDS011;16600;47.444;8.334;2022-09-16T08:50:27;5.75;;;3.10;;
29688;SDS011;16600;47.444;8.334;2022-09-16T08:52:55;5.55;;;3.50;;
29688;SDS011;16600;47.444;8.334;2022-09-16T08:55:24;5.35;;;3.13;;
29688;SDS011;16600;47.444;8.334;2022-09-16T08:58:14;3.67;;;3.13;;
29688;SDS011;16600;47.444;8.334;2022-09-16T09:00:42;6.95;;;3.88;;
29688;SDS011;16600;47.444;8.334;2022-09-16T09:03:32;5.85;;;4.95;;
29688;SDS011;16600;47.444;8.334;2022-09-16T09:06:07;5.70;;;3.97;;
29688;SDS011;16600;47.444;8.334;2022-09-16T09:08:45;4.85;;;3.58;;
29688;SDS011;16600;47.444;8.334;2022-09-16T09:11:28;6.20;;;3.60;;
29688;SDS011;16600;47.444;8.334;2022-09-16T09:19:32;3.90;;;3.03;;
29688;SDS011;16600;47.444;8.334;2022-09-16T09:22:16;4.85;;;3.45;;
29688;SDS011;16600;47.444;8.334;2022-09-16T09:30:23;7.53;;;3.85;;
29688;SDS011;16600;47.444;8.334;2022-09-16T09:38:42;8.02;;;3.92;;
29688;SDS011;16600;47.444;8.334;2022-09-16T09:41:23;6.25;;;4.15;;
29688;SDS011;16600;47.444;8.334;2022-09-16T09:43:52;4.50;;;3.67;;
29688;SDS011;16600;47.444;8.334;2022-09-16T09:46:24;11.52;;;4.70;;
29688;SDS011;16600;47.444;8.334;2022-09-16T09:51:20;7.57;;;4.20;;
29688;SDS011;16600;47.444;8.334;2022-09-16T09:53:49;14.70;;;4.32;;
29688;SDS011;16600;47.444;8.334;2022-09-16T09:56:19;5.47;;;4.30;;
29688;SDS011;16600;47.444;8.334;2022-09-16T10:03:05;6.80;;;4.15;;
29688;SDS011;16600;47.444;8.334;2022-09-16T10:05:32;5.43;;;4.32;;
29688;SDS011;16600;47.444;8.334;2022-09-16T10:08:08;4.82;;;4.10;;
29688;SDS011;16600;47.444;8.334;2022-09-16T10:10:42;6.53;;;4.13;;
29688;SDS011;16600;47.444;8.334;2022-09-16T10:13:10;4.70;;;4.30;;
29688;SDS011;16600;47.444;8.334;2022-09-16T10:15:37;6.28;;;4.75;;
29688;SDS011;16600;47.444;8.334;2022-09-16T10:20:57;6.30;;;4.75;;
29688;SDS011;16600;47.444;8.334;2022-09-16T10:23:24;10.00;;;5.18;;
29688;SDS011;16600;47.444;8.334;2022-09-16T10:26:02;8.13;;;4.43;;
29688;SDS011;16600;47.444;8.334;2022-09-16T10:28:28;6.57;;;4.80;;
29688;SDS011;16600;47.444;8.334;2022-09-16T10:30:55;5.35;;;4.40;;
29688;SDS011;16600;47.444;8.334;2022-09-16T10:33:44;7.70;;;5.13;;
29688;SDS011;16600;47.444;8.334;2022-09-16T10:36:09;7.82;;;4.65;;
29688;SDS011;16600;47.444;8.334;2022-09-16T10:38:36;6.18;;;4.50;;
29688;SDS011;16600;47.444;8.334;2022-09-16T10:41:16;5.60;;;4.55;;
29688;SDS011;16600;47.444;8.334;2022-09-16T10:43:45;6.13;;;4.47;;
29688;SDS011;16600;47.444;8.334;2022-09-16T10:46:14;5.68;;;4.65;;
29688;SDS011;16600;47.444;8.334;2022-09-16T10:48:41;6.82;;;3.92;;
29688;SDS011;16600;47.444;8.334;2022-09-16T10:51:18;7.72;;;4.45;;
29688;SDS011;16600;47.444;8.334;2022-09-16T10:53:49;5.35;;;4.80;;
29688;SDS011;16600;47.444;8.334;2022-09-16T10:56:17;7.10;;;4.72;;
29688;SDS011;16600;47.444;8.334;2022-09-16T10:58:44;7.70;;;4.45;;
29688;SDS011;16600;47.444;8.334;2022-09-16T11:01:31;6.45;;;4.63;;
29688;SDS011;16600;47.444;8.334;2022-09-16T11:19:24;11.10;;;4.10;;
29688;SDS011;16600;47.444;8.334;2022-09-16T11:22:00;5.32;;;3.40;;
29688;SDS011;16600;47.444;8.334;2022-09-16T11:42:09;11.20;;;3.17;;
29688;SDS011;16600;47.444;8.334;2022-09-16T11:44:43;4.65;;;2.85;;
29688;SDS011;16600;47.444;8.334;2022-09-16T11:49:55;4.05;;;2.95;;
29688;SDS011;16600;47.444;8.334;2022-09-16T11:52:33;7.70;;;3.03;;
29688;SDS011;16600;47.444;8.334;2022-09-16T11:55:16;4.57;;;2.70;;
29688;SDS011;16600;47.444;8.334;2022-09-16T11:57:44;8.05;;;2.70;;
29688;SDS011;16600;47.444;8.334;2022-09-16T12:00:12;3.25;;;2.58;;
29688;SDS011;16600;47.444;8.334;2022-09-16T12:02:48;5.90;;;2.63;;
29688;SDS011;16600;47.444;8.334;2022-09-16T12:07:54;4.97;;;2.67;;
29688;SDS011;16600;47.444;8.334;2022-09-16T12:10:22;4.78;;;2.90;;
29688;SDS011;16600;47.444;8.334;2022-09-16T12:12:56;3.75;;;2.50;;
29688;SDS011;16600;47.444;8.334;2022-09-16T12:15:26;3.38;;;2.50;;
29688;SDS011;16600;47.444;8.334;2022-09-16T12:17:54;3.88;;;2.50;;
29688;SDS011;16600;47.444;8.334;2022-09-16T12:20:22;3.85;;;2.45;;
29688;SDS011;16600;47.444;8.334;2022-09-16T12:23:23;2.85;;;2.47;;
29688;SDS011;16600;47.444;8.334;2022-09-16T12:26:24;4.80;;;2.20;;
29688;SDS011;16600;47.444;8.334;2022-09-16T12:28:31;7.45;;;2.65;;
29688;SDS011;16600;47.444;8.334;2022-09-16T12:33:59;4.63;;;2.50;;
29688;SDS011;16600;47.444;8.334;2022-09-16T12:36:27;5.70;;;2.60;;
29688;SDS011;16600;47.444;8.334;2022-09-16T12:38:56;5.68;;;2.70;;
29688;SDS011;16600;47.444;8.334;2022-09-16T12:54:23;5.50;;;2.95;;
29688;SDS011;16600;47.444;8.334;2022-09-16T13:02:23;17.17;;;2.97;;
29688;SDS011;16600;47.444;8.334;2022-09-16T13:04:52;2.50;;;2.30;;
29688;SDS011;16600;47.444;8.334;2022-09-16T13:07:26;3.08;;;2.85;;
29688;SDS011;16600;47.444;8.334;2022-09-16T13:12:38;5.95;;;3.00;;
29688;SDS011;16600;47.444;8.334;2022-09-16T13:15:04;4.82;;;3.00;;
29688;SDS011;16600;47.444;8.334;2022-09-16T13:17:34;3.85;;;2.80;;
29688;SDS011;16600;47.444;8.334;2022-09-16T13:22:31;5.18;;;2.92;;
29688;SDS011;16600;47.444;8.334;2022-09-16T13:25:34;5.72;;;2.80;;
29688;SDS011;16600;47.444;8.334;2022-09-16T13:27:56;3.67;;;2.70;;
29688;SDS011;16600;47.444;8.334;2022-09-16T13:32:59;5.32;;;2.83;;
29688;SDS011;16600;47.444;8.334;2022-09-16T13:38:10;3.63;;;2.60;;
29688;SDS011;16600;47.444;8.334;2022-09-16T13:40:36;3.30;;;2.60;;
29688;SDS011;16600;47.444;8.334;2022-09-16T13:43:03;5.85;;;2.60;;
29688;SDS011;16600;47.444;8.334;2022-09-16T13:45:38;6.07;;;3.33;;
29688;SDS011;16600;47.444;8.334;2022-09-16T13:48:08;4.88;;;3.10;;
29688;SDS011;16600;47.444;8.334;2022-09-16T13:50:34;3.25;;;2.60;;
29688;SDS011;16600;47.444;8.334;2022-09-16T13:53:23;4.07;;;2.70;;
29688;SDS011;16600;47.444;8.334;2022-09-16T13:55:47;6.70;;;3.05;;
29688;SDS011;16600;47.444;8.334;2022-09-16T13:58:17;5.78;;;2.53;;
29688;SDS011;16600;47.444;8.334;2022-09-16T14:00:56;3.35;;;2.60;;
29688;SDS011;16600;47.444;8.334;2022-09-16T14:03:41;4.60;;;2.75;;
29688;SDS011;16600;47.444;8.334;2022-09-16T14:13:47;9.35;;;2.45;;
29688;SDS011;16600;47.444;8.334;2022-09-16T14:16:21;5.00;;;2.45;;
29688;SDS011;16600;47.444;8.334;2022-09-16T14:18:55;2.78;;;2.05;;
29688;SDS011;16600;47.444;8.334;2022-09-16T14:21:28;3.35;;;2.22;;
29688;SDS011;16600;47.444;8.334;2022-09-16T14:23:54;2.70;;;2.00;;
29688;SDS011;16600;47.444;8.334;2022-09-16T14:26:21;1.73;;;1.63;;
29688;SDS011;16600;47.444;8.334;2022-09-16T14:28:47;4.28;;;1.92;;
29688;SDS011;16600;47.444;8.334;2022-09-16T14:31:14;3.92;;;2.13;;
29688;SDS011;16600;47.444;8.334;2022-09-16T14:33:43;2.47;;;1.90;;
29688;SDS011;16600;47.444;8.334;2022-09-16T14:36:11;5.47;;;2.05;;
29688;SDS011;16600;47.444;8.334;2022-09-16T14:38:46;4.47;;;2.50;;
29688;SDS011;16600;47.444;8.334;2022-09-16T14:41:18;5.78;;;2.28;;
29688;SDS011;16600;47.444;8.334;2022-09-16T14:43:46;6.07;;;1.85;;
29688;SDS011;16600;47.444;8.334;2022-09-16T14:46:12;2.38;;;1.88;;
29688;SDS011;16600;47.444;8.334;2022-09-16T14:48:38;2.08;;;1.58;;
29688;SDS011;16600;47.444;8.334;2022-09-16T14:51:41;2.00;;;1.60;;
29688;SDS011;16600;47.444;8.334;2022-09-16T14:54:00;2.28;;;2.05;;
29688;SDS011;16600;47.444;8.334;2022-09-16T14:56:26;2.72;;;2.15;;
29688;SDS011;16600;47.444;8.334;2022-09-16T14:58:52;1.92;;;1.55;;
29688;SDS011;16600;47.444;8.334;2022-09-16T15:01:28;7.53;;;2.20;;
29688;SDS011;16600;47.444;8.334;2022-09-16T15:03:55;2.25;;;1.85;;
29688;SDS011;16600;47.444;8.334;2022-09-16T15:06:23;2.70;;;2.47;;
29688;SDS011;16600;47.444;8.334;2022-09-16T15:08:53;3.95;;;2.20;;
29688;SDS011;16600;47.444;8.334;2022-09-16T15:11:20;3.28;;;2.30;;
29688;SDS011;16600;47.444;8.334;2022-09-16T15:13:50;5.80;;;2.30;;
29688;SDS011;16600;47.444;8.334;2022-09-16T15:16:17;5.05;;;2.30;;
29688;SDS011;16600;47.444;8.334;2022-09-16T15:18:52;3.60;;;2.38;;
29688;SDS011;16600;47.444;8.334;2022-09-16T15:21:23;3.65;;;2.25;;
29688;SDS011;16600;47.444;8.334;2022-09-16T15:23:51;2.75;;;2.45;;
29688;SDS011;16600;47.444;8.334;2022-09-16T15:29:03;5.47;;;2.50;;
29688;SDS011;16600;47.444;8.334;2022-09-16T15:33:57;8.57;;;2.70;;
29688;SDS011;16600;47.444;8.334;2022-09-16T15:38:58;6.93;;;2.45;;
29688;SDS011;16600;47.444;8.334;2022-09-16T15:41:24;3.53;;;2.17;;
29688;SDS011;16600;47.444;8.334;2022-09-16T15:43:50;3.53;;;2.25;;
29688;SDS011;16600;47.444;8.334;2022-09-16T15:46:20;3.58;;;2.97;;
29688;SDS011;16600;47.444;8.334;2022-09-16T15:48:54;2.53;;;2.28;;
29688;SDS011;16600;47.444;8.334;2022-09-16T15:52:07;9.93;;;2.70;;
29688;SDS011;16600;47.444;8.334;2022-09-16T15:54:18;4.32;;;2.70;;
29688;SDS011;16600;47.444;8.334;2022-09-16T16:03:03;5.67;;;2.70;;
29688;SDS011;16600;47.444;8.334;2022-09-16T16:05:42;5.43;;;2.92;;
29688;SDS011;16600;47.444;8.334;2022-09-16T16:08:14;3.65;;;2.72;;
29688;SDS011;16600;47.444;8.334;2022-09-16T16:11:08;3.30;;;2.50;;
29688;SDS011;16600;47.444;8.334;2022-09-16T16:13:34;6.40;;;2.72;;
29688;SDS011;16600;47.444;8.334;2022-09-16T16:18:29;4.72;;;2.90;;
29688;SDS011;16600;47.444;8.334;2022-09-16T16:20:59;7.85;;;2.85;;
29688;SDS011;16600;47.444;8.334;2022-09-16T16:23:26;3.03;;;2.72;;
29688;SDS011;16600;47.444;8.334;2022-09-16T16:25:53;2.97;;;2.35;;
29688;SDS011;16600;47.444;8.334;2022-09-16T16:28:19;3.85;;;2.45;;
29688;SDS011;16600;47.444;8.334;2022-09-16T16:30:45;3.35;;;2.25;;
29688;SDS011;16600;47.444;8.334;2022-09-16T16:35:37;4.70;;;2.22;;
29688;SDS011;16600;47.444;8.334;2022-09-16T16:38:02;2.80;;;1.90;;
29688;SDS011;16600;47.444;8.334;2022-09-16T16:42:54;5.25;;;2.00;;
29688;SDS011;16600;47.444;8.334;2022-09-16T16:45:20;3.88;;;1.85;;
29688;SDS011;16600;47.444;8.334;2022-09-16T16:50:12;2.13;;;1.60;;
29688;SDS011;16600;47.444;8.334;2022-09-16T16:52:38;3.20;;;1.83;;
29688;SDS011;16600;47.444;8.334;2022-09-16T16:55:04;3.50;;;1.60;;
29688;SDS011;16600;47.444;8.334;2022-09-16T16:57:31;8.88;;;1.92;;
29688;SDS011;16600;47.444;8.334;2022-09-16T17:02:22;3.55;;;2.13;;
29688;SDS011;16600;47.444;8.334;2022-09-16T17:07:14;3.88;;;1.85;;
29688;SDS011;16600;47.444;8.334;2022-09-16T17:12:05;1.65;;;1.55;;
29688;SDS011;16600;47.444;8.334;2022-09-16T17:16:57;3.30;;;2.33;;
29688;SDS011;16600;47.444;8.334;2022-09-16T17:19:24;2.92;;;2.03;;
29688;SDS011;16600;47.444;8.334;2022-09-16T17:21:50;13.73;;;2.65;;
29688;SDS011;16600;47.444;8.334;2022-09-16T17:24:20;3.58;;;2.42;;
29688;SDS011;16600;47.444;8.334;2022-09-16T17:26:46;7.70;;;2.15;;
29688;SDS011;16600;47.444;8.334;2022-09-16T17:29:12;4.45;;;2.30;;
29688;SDS011;16600;47.444;8.334;2022-09-16T17:31:39;3.38;;;1.85;;
29688;SDS011;16600;47.444;8.334;2022-09-16T17:34:06;2.95;;;2.42;;
29688;SDS011;16600;47.444;8.334;2022-09-16T17:36:33;4.05;;;2.20;;
29688;SDS011;16600;47.444;8.334;2022-09-16T17:39:00;4.47;;;2.50;;
29688;SDS011;16600;47.444;8.334;2022-09-16T17:41:27;2.20;;;1.92;;
29688;SDS011;16600;47.444;8.334;2022-09-16T17:43:54;5.20;;;2.63;;
29688;SDS011;16600;47.444;8.334;2022-09-16T17:46:20;5.25;;;2.00;;
29688;SDS011;16600;47.444;8.334;2022-09-16T17:48:50;3.33;;;2.10;;
29688;SDS011;16600;47.444;8.334;2022-09-16T17:51:16;1.70;;;1.45;;
29688;SDS011;16600;47.444;8.334;2022-09-16T17:56:11;3.20;;;1.85;;
29688;SDS011;16600;47.444;8.334;2022-09-16T17:58:37;4.65;;;2.15;;
29688;SDS011;16600;47.444;8.334;2022-09-16T18:01:04;3.72;;;1.83;;
29688;SDS011;16600;47.444;8.334;2022-09-16T18:03:30;3.63;;;2.20;;
29688;SDS011;16600;47.444;8.334;2022-09-16T18:06:07;5.80;;;2.75;;
29688;SDS011;16600;47.444;8.334;2022-09-16T18:08:33;4.20;;;2.20;;
29688;SDS011;16600;47.444;8.334;2022-09-16T18:10:59;6.25;;;2.72;;
29688;SDS011;16600;47.444;8.334;2022-09-16T18:13:25;2.70;;;2.08;;
29688;SDS011;16600;47.444;8.334;2022-09-16T18:18:17;2.05;;;1.75;;
29688;SDS011;16600;47.444;8.334;2022-09-16T18:20:52;6.32;;;2.25;;
29688;SDS011;16600;47.444;8.334;2022-09-16T18:23:18;2.67;;;2.13;;
29688;SDS011;16600;47.444;8.334;2022-09-16T18:28:10;3.22;;;2.83;;
29688;SDS011;16600;47.444;8.334;2022-09-16T18:33:02;9.77;;;2.40;;
29688;SDS011;16600;47.444;8.334;2022-09-16T18:35:28;7.20;;;2.28;;
29688;SDS011;16600;47.444;8.334;2022-09-16T18:37:54;3.08;;;2.20;;
29688;SDS011;16600;47.444;8.334;2022-09-16T18:42:45;2.80;;;1.95;;
29688;SDS011;16600;47.444;8.334;2022-09-16T18:47:37;5.45;;;1.90;;
29688;SDS011;16600;47.444;8.334;2022-09-16T18:50:03;3.78;;;2.65;;
29688;SDS011;16600;47.444;8.334;2022-09-16T18:54:55;2.97;;;2.08;;
29688;SDS011;16600;47.444;8.334;2022-09-16T18:57:21;4.88;;;3.17;;
29688;SDS011;16600;47.444;8.334;2022-09-16T18:59:48;5.72;;;3.05;;
29688;SDS011;16600;47.444;8.334;2022-09-16T19:04:40;4.65;;;2.10;;
29688;SDS011;16600;47.444;8.334;2022-09-16T19:07:07;3.30;;;2.05;;
29688;SDS011;16600;47.444;8.334;2022-09-16T19:09:35;5.30;;;2.35;;
29688;SDS011;16600;47.444;8.334;2022-09-16T19:12:02;3.47;;;2.42;;
29688;SDS011;16600;47.444;8.334;2022-09-16T19:14:32;3.25;;;2.20;;
29688;SDS011;16600;47.444;8.334;2022-09-16T19:16:58;5.20;;;2.58;;
29688;SDS011;16600;47.444;8.334;2022-09-16T19:19:24;7.22;;;2.42;;
29688;SDS011;16600;47.444;8.334;2022-09-16T19:24:16;7.85;;;2.33;;
29688;SDS011;16600;47.444;8.334;2022-09-16T19:26:43;7.80;;;2.83;;
29688;SDS011;16600;47.444;8.334;2022-09-16T19:29:09;3.67;;;2.33;;
29688;SDS011;16600;47.444;8.334;2022-09-16T19:31:36;4.00;;;2.22;;
29688;SDS011;16600;47.444;8.334;2022-09-16T19:34:03;6.07;;;2.38;;